Time;durP1;ratioP1;P1;durP2;ratioP2;P2;SDS_P1;SDS_P2;PMS_P1;PMS_P2;Temp;Humidity;BMP_temperature;BMP_pressure;BME280_temperature;BME280_humidity;BME280_pressure;Samples;Min_cycle;Max_cycle;Signal;HPM_P1;HPM_P2
2022/08/03 00:02:25;;;;;;;5.38;1.63;;;21.10;99.90;;;;;;4798946;29;20782;-83
2022/08/03 00:04:51;;;;;;;4.80;1.58;;;21.10;99.90;;;;;;4820261;29;20527;-82
2022/08/03 00:07:17;;;;;;;5.03;1.63;;;21.10;99.90;;;;;;4819128;29;20042;-82
2022/08/03 00:09:43;;;;;;;4.28;1.70;;;21.00;99.90;;;;;;4822770;29;20046;-82
2022/08/03 00:12:09;;;;;;;7.68;1.80;;;21.00;99.90;;;;;;4817866;29;20560;-82
2022/08/03 00:14:34;;;;;;;9.98;1.83;;;21.00;99.90;;;;;;4823794;29;20053;-82
2022/08/03 00:17:00;;;;;;;6.15;1.63;;;21.00;99.90;;;;;;4816913;29;20046;-83
2022/08/03 00:19:26;;;;;;;6.70;2.13;;;20.90;99.90;;;;;;4809679;29;20102;-82
2022/08/03 00:21:52;;;;;;;6.70;1.83;;;20.90;99.90;;;;;;4836999;29;20062;-82
2022/08/03 00:24:18;;;;;;;9.13;1.77;;;20.90;99.90;;;;;;4820152;29;20051;-82
2022/08/03 00:26:44;;;;;;;4.30;1.63;;;20.90;99.90;;;;;;4820155;29;20373;-83
2022/08/03 00:29:10;;;;;;;5.47;1.60;;;20.80;99.90;;;;;;4826851;29;20074;-82
2022/08/03 00:31:35;;;;;;;5.95;2.25;;;20.80;99.90;;;;;;4813564;29;20609;-82
2022/08/03 00:34:01;;;;;;;7.78;1.88;;;20.80;99.90;;;;;;4838609;29;20050;-83
2022/08/03 00:36:27;;;;;;;7.85;2.20;;;20.70;99.90;;;;;;4830334;29;20556;-83
2022/08/03 00:38:53;;;;;;;4.72;1.52;;;20.70;99.90;;;;;;4829549;29;20038;-82
2022/08/03 00:41:19;;;;;;;5.22;1.60;;;20.60;99.90;;;;;;4818435;29;20123;-82
2022/08/03 00:43:46;;;;;;;6.07;2.30;;;20.70;99.90;;;;;;4815955;29;20056;-83
2022/08/03 00:46:12;;;;;;;7.95;2.30;;;20.60;99.90;;;;;;4815838;29;20487;-82
2022/08/03 00:48:39;;;;;;;4.47;1.60;;;20.60;99.90;;;;;;4813782;29;20098;-82
2022/08/03 00:51:05;;;;;;;6.40;1.70;;;20.50;99.90;;;;;;4833364;29;20050;-83
2022/08/03 00:53:33;;;;;;;7.25;2.20;;;20.50;99.90;;;;;;4805625;29;20532;-82
2022/08/03 00:55:59;;;;;;;9.07;2.33;;;20.50;99.90;;;;;;4803327;29;20046;-82
2022/08/03 00:58:25;;;;;;;11.25;1.80;;;20.50;99.90;;;;;;4813821;29;20043;-82
2022/08/03 01:00:51;;;;;;;6.30;1.98;;;20.50;99.90;;;;;;4819938;29;20461;-82
2022/08/03 01:03:17;;;;;;;8.70;1.90;;;20.40;99.90;;;;;;4822581;29;20053;-82
2022/08/03 01:05:57;;;;;;;3.70;1.90;;;20.40;99.90;;;;;;4804619;29;20129;-83
2022/08/03 01:09:03;;;;;;;5.80;2.05;;;20.40;99.90;;;;;;4821902;29;20433;-82
2022/08/03 01:11:56;;;;;;;10.85;2.42;;;20.30;99.90;;;;;;4783685;29;20193;-82
2022/08/03 01:14:54;;;;;;;6.85;1.92;;;20.30;99.90;;;;;;4835115;29;20488;-82
2022/08/03 01:17:27;;;;;;;4.93;1.75;;;20.30;99.90;;;;;;4811061;29;20057;-82
2022/08/03 01:20:03;;;;;;;5.15;1.98;;;20.20;99.90;;;;;;4818970;29;20437;-82
2022/08/03 01:22:54;;;;;;;11.30;2.40;;;20.20;99.90;;;;;;4813989;29;20050;-83
2022/08/03 01:25:58;;;;;;;7.35;2.05;;;20.20;99.90;;;;;;4812640;29;20074;-82
2022/08/03 01:29:07;;;;;;;7.97;2.00;;;20.20;99.90;;;;;;4807205;29;20046;-83
2022/08/03 01:31:42;;;;;;;4.25;2.15;;;20.10;99.90;;;;;;4837340;29;20042;-82
2022/08/03 01:34:12;;;;;;;6.00;2.17;;;20.10;99.90;;;;;;4832470;29;20134;-83
2022/08/03 01:36:42;;;;;;;6.53;2.38;;;20.00;99.90;;;;;;4815977;29;20055;-83
2022/08/03 01:39:09;;;;;;;4.60;2.30;;;20.00;99.90;;;;;;4816175;29;20043;-82
2022/08/03 01:41:43;;;;;;;8.88;2.17;;;20.00;99.90;;;;;;4816457;29;20512;-83
2022/08/03 01:44:11;;;;;;;7.82;2.05;;;20.00;99.90;;;;;;4830738;29;20428;-83
2022/08/03 01:46:39;;;;;;;7.93;2.50;;;20.00;99.90;;;;;;4817106;29;20078;-83
2022/08/03 01:49:09;;;;;;;6.78;2.20;;;20.00;99.90;;;;;;4802876;29;20399;-83
2022/08/03 01:51:38;;;;;;;5.95;2.08;;;19.90;99.90;;;;;;4835983;29;20043;-83
2022/08/03 01:54:06;;;;;;;6.40;2.10;;;19.90;99.90;;;;;;4795606;29;20047;-83
2022/08/03 01:56:33;;;;;;;6.30;1.90;;;19.90;99.90;;;;;;4821675;29;20085;-83
2022/08/03 01:59:01;;;;;;;3.63;1.80;;;19.90;99.90;;;;;;4822493;29;20046;-83
2022/08/03 02:01:28;;;;;;;7.82;2.72;;;19.90;99.90;;;;;;4800420;29;20126;-83
2022/08/03 02:03:56;;;;;;;7.90;2.42;;;19.90;99.90;;;;;;4817928;29;20104;-83
2022/08/03 02:06:23;;;;;;;3.97;2.10;;;19.90;99.90;;;;;;4820273;29;20038;-83
2022/08/03 02:08:51;;;;;;;6.35;2.00;;;19.90;99.90;;;;;;4803900;29;20038;-83
2022/08/03 02:11:17;;;;;;;4.15;2.10;;;19.80;99.90;;;;;;4817794;29;20050;-83
2022/08/03 02:13:45;;;;;;;6.15;2.22;;;19.80;99.90;;;;;;4804931;29;20051;-83
2022/08/03 02:16:12;;;;;;;5.20;2.13;;;19.70;99.90;;;;;;4810371;29;20050;-83
2022/08/03 02:18:40;;;;;;;7.28;2.17;;;19.70;99.90;;;;;;4820431;29;20050;-83
2022/08/03 02:21:09;;;;;;;9.88;2.60;;;19.70;99.90;;;;;;4820671;29;20188;-83
2022/08/03 02:23:35;;;;;;;5.25;1.98;;;19.70;99.90;;;;;;4818669;29;20051;-83
2022/08/03 02:26:04;;;;;;;7.13;2.00;;;19.70;99.90;;;;;;4822956;29;20061;-83
2022/08/03 02:28:41;;;;;;;8.50;2.20;;;19.60;99.90;;;;;;4820080;29;20096;-82
2022/08/03 02:31:14;;;;;;;6.65;1.92;;;19.60;99.90;;;;;;4813667;29;20043;-83
2022/08/03 02:33:49;;;;;;;9.15;2.42;;;19.60;99.90;;;;;;4816146;29;20047;-83
2022/08/03 02:36:18;;;;;;;3.58;1.77;;;19.60;99.90;;;;;;4832724;29;20050;-82
2022/08/03 02:38:48;;;;;;;8.38;2.15;;;19.50;99.90;;;;;;4823014;29;20133;-83
2022/08/03 02:41:22;;;;;;;5.43;2.30;;;19.50;99.90;;;;;;4818127;29;20411;-83
2022/08/03 02:43:52;;;;;;;5.13;2.20;;;19.50;99.90;;;;;;4833303;29;20053;-82
2022/08/03 02:46:21;;;;;;;6.85;2.45;;;19.50;99.90;;;;;;4812558;29;20054;-83
2022/08/03 02:48:49;;;;;;;7.43;2.35;;;19.50;99.90;;;;;;4836823;29;20058;-83
2022/08/03 02:51:17;;;;;;;5.88;2.55;;;19.50;99.90;;;;;;4833155;29;20086;-83
2022/08/03 02:53:44;;;;;;;4.35;1.75;;;19.50;99.90;;;;;;4822702;29;20054;-83
2022/08/03 02:56:11;;;;;;;6.63;2.17;;;19.50;99.90;;;;;;4830028;29;20112;-83
2022/08/03 02:58:41;;;;;;;6.53;2.25;;;19.40;99.90;;;;;;4837893;29;20054;-83
2022/08/03 03:01:07;;;;;;;5.85;2.17;;;19.40;99.90;;;;;;4820473;29;20504;-83
2022/08/03 03:03:34;;;;;;;5.45;1.85;;;19.40;99.90;;;;;;4826092;29;20046;-83
2022/08/03 03:06:02;;;;;;;5.80;1.73;;;19.40;99.90;;;;;;4829010;29;20043;-83
2022/08/03 03:08:28;;;;;;;8.52;2.28;;;19.40;99.90;;;;;;4831117;29;20070;-83
2022/08/03 03:10:59;;;;;;;8.65;2.08;;;19.40;99.90;;;;;;4829145;29;20042;-83
2022/08/03 03:13:27;;;;;;;5.82;1.70;;;19.30;99.90;;;;;;4818663;29;20043;-83
2022/08/03 03:15:55;;;;;;;4.55;2.10;;;19.30;99.90;;;;;;4808441;29;20054;-83
2022/08/03 03:18:21;;;;;;;7.88;2.70;;;19.30;99.90;;;;;;4822494;29;20488;-83
2022/08/03 03:20:49;;;;;;;4.82;1.90;;;19.30;99.90;;;;;;4823423;29;20046;-83
2022/08/03 03:23:16;;;;;;;6.93;2.05;;;19.20;99.90;;;;;;4826848;29;20047;-83
2022/08/03 03:25:43;;;;;;;6.90;2.10;;;19.30;99.90;;;;;;4813637;29;20088;-83
2022/08/03 03:28:09;;;;;;;5.53;1.92;;;19.20;99.90;;;;;;4833279;29;20539;-83
2022/08/03 03:30:35;;;;;;;6.95;2.40;;;19.20;99.90;;;;;;4815038;29;20035;-83
2022/08/03 03:33:01;;;;;;;5.60;2.35;;;19.20;99.90;;;;;;4819466;29;20059;-83
2022/08/03 03:35:28;;;;;;;6.18;2.10;;;19.20;99.90;;;;;;4835540;29;20058;-83
2022/08/03 03:37:54;;;;;;;6.78;2.00;;;19.20;99.90;;;;;;4837988;29;20513;-83
2022/08/03 03:40:21;;;;;;;6.75;2.30;;;19.20;99.90;;;;;;4807843;29;20071;-83
2022/08/03 03:42:46;;;;;;;8.00;2.03;;;19.20;99.90;;;;;;4802737;29;20051;-83
2022/08/03 03:45:12;;;;;;;9.60;2.38;;;19.20;99.90;;;;;;4805390;29;20137;-83
2022/08/03 03:47:38;;;;;;;6.30;2.03;;;19.20;99.90;;;;;;4795121;29;20050;-83
2022/08/03 03:50:05;;;;;;;7.97;2.38;;;19.20;99.90;;;;;;4808606;29;20085;-83
2022/08/03 03:52:32;;;;;;;8.82;2.25;;;19.20;99.90;;;;;;4818711;29;20376;-83
2022/08/03 03:54:58;;;;;;;6.65;2.42;;;19.10;99.90;;;;;;4803873;29;20051;-83
2022/08/03 03:57:23;;;;;;;10.60;2.50;;;19.10;99.90;;;;;;4817851;29;20038;-83
2022/08/03 03:59:49;;;;;;;6.32;2.10;;;19.10;99.90;;;;;;4797061;29;20045;-83
2022/08/03 04:02:15;;;;;;;4.70;2.00;;;19.10;99.90;;;;;;4811267;29;20095;-83
2022/08/03 04:13:02;;;;;;;7.40;2.22;;;19.00;99.90;;;;;;4818397;29;20062;-83
2022/08/03 04:15:32;;;;;;;6.85;2.70;;;19.00;99.90;;;;;;4822378;29;20050;-83
2022/08/03 04:17:58;;;;;;;7.22;2.10;;;19.00;99.90;;;;;;4816569;29;20047;-83
2022/08/03 04:20:29;;;;;;;7.90;2.60;;;19.00;99.90;;;;;;4835759;29;20046;-83
2022/08/03 04:22:58;;;;;;;9.00;2.95;;;19.00;99.90;;;;;;4815034;29;20057;-83
2022/08/03 04:25:26;;;;;;;8.07;2.50;;;19.00;99.90;;;;;;4807908;29;20043;-83
2022/08/03 04:27:54;;;;;;;6.18;2.60;;;19.00;99.90;;;;;;4822122;29;20049;-83
2022/08/03 04:30:21;;;;;;;7.35;2.88;;;19.00;99.90;;;;;;4802863;29;20038;-83
2022/08/03 04:32:50;;;;;;;7.22;2.55;;;18.90;99.90;;;;;;4818443;29;20522;-84
2022/08/03 04:35:18;;;;;;;10.32;2.63;;;18.90;99.90;;;;;;4806293;29;20049;-83
2022/08/03 04:37:51;;;;;;;11.25;2.60;;;18.90;99.90;;;;;;4808142;29;20046;-83
2022/08/03 04:40:24;;;;;;;9.50;2.60;;;18.90;99.90;;;;;;4821655;29;20199;-83
2022/08/03 04:42:53;;;;;;;10.77;2.63;;;19.00;99.90;;;;;;4821110;29;20419;-83
2022/08/03 04:45:20;;;;;;;7.65;2.45;;;19.00;99.90;;;;;;4836153;29;20049;-83
2022/08/03 04:47:46;;;;;;;8.85;3.03;;;19.00;99.90;;;;;;4815665;29;20042;-83
2022/08/03 04:50:12;;;;;;;6.80;2.70;;;19.00;99.90;;;;;;4819424;29;20057;-83
2022/08/03 04:52:38;;;;;;;6.55;2.85;;;19.00;99.90;;;;;;4805936;29;20111;-83
2022/08/03 04:55:04;;;;;;;11.13;2.70;;;19.00;99.90;;;;;;4820648;29;20035;-83
2022/08/03 04:57:30;;;;;;;8.95;2.90;;;19.00;99.90;;;;;;4819260;29;20520;-83
2022/08/03 04:59:56;;;;;;;7.13;2.40;;;18.90;99.90;;;;;;4820911;29;20077;-83
2022/08/03 05:02:22;;;;;;;4.45;2.60;;;19.00;99.90;;;;;;4802445;29;20046;-83
2022/08/03 05:04:48;;;;;;;8.27;2.47;;;19.00;99.90;;;;;;4811114;29;20058;-83
2022/08/03 05:07:15;;;;;;;9.68;2.88;;;19.00;99.90;;;;;;4816494;29;20043;-83
2022/08/03 05:09:42;;;;;;;9.18;2.40;;;19.00;99.90;;;;;;4817291;29;20050;-83
2022/08/03 05:12:08;;;;;;;9.48;2.88;;;19.10;99.90;;;;;;4809514;29;20054;-83
2022/08/03 05:14:36;;;;;;;11.27;3.30;;;19.10;99.90;;;;;;4818638;29;20046;-84
2022/08/03 05:17:03;;;;;;;8.52;3.30;;;19.10;99.90;;;;;;4844900;29;20129;-83
2022/08/03 05:19:28;;;;;;;8.10;3.08;;;19.20;99.90;;;;;;4821385;29;20046;-83
2022/08/03 05:21:54;;;;;;;8.85;3.05;;;19.20;99.90;;;;;;4838725;29;20059;-84
2022/08/03 05:24:20;;;;;;;6.82;3.20;;;19.20;99.90;;;;;;4804808;29;20046;-83
2022/08/03 05:26:45;;;;;;;8.70;2.90;;;19.20;99.90;;;;;;4824754;29;20043;-83
2022/08/03 05:29:11;;;;;;;12.70;3.40;;;19.30;99.90;;;;;;4784946;29;20051;-83
2022/08/03 05:31:37;;;;;;;6.18;3.13;;;19.30;99.90;;;;;;4838586;29;20042;-84
2022/08/03 05:34:02;;;;;;;9.40;3.30;;;19.30;99.90;;;;;;4819098;29;20053;-83
2022/08/03 05:36:28;;;;;;;12.07;3.40;;;19.40;99.90;;;;;;4820847;29;20050;-83
2022/08/03 05:38:53;;;;;;;8.65;3.17;;;19.40;99.90;;;;;;4809901;29;20565;-83
2022/08/03 05:41:19;;;;;;;11.20;3.38;;;19.40;99.90;;;;;;4815454;29;20062;-83
2022/08/03 05:43:45;;;;;;;9.15;3.33;;;19.40;99.90;;;;;;4809327;29;20074;-77
2022/08/03 05:46:11;;;;;;;9.18;3.45;;;19.50;99.90;;;;;;4798998;29;20466;-78
2022/08/03 05:48:37;;;;;;;9.32;3.05;;;19.50;99.90;;;;;;4838794;29;20503;-78
2022/08/03 05:51:05;;;;;;;9.18;3.20;;;19.60;99.90;;;;;;4809509;29;20069;-78
2022/08/03 05:53:34;;;;;;;6.82;3.10;;;19.60;99.90;;;;;;4824754;29;20054;-78
2022/08/03 05:56:00;;;;;;;7.05;3.65;;;19.60;99.90;;;;;;4816940;29;20054;-78
2022/08/03 05:58:25;;;;;;;8.60;3.60;;;19.60;99.90;;;;;;4818424;29;20107;-78
2022/08/03 06:00:51;;;;;;;10.30;3.75;;;19.70;99.90;;;;;;4805565;29;20046;-78
2022/08/03 06:03:17;;;;;;;10.95;3.95;;;19.70;99.90;;;;;;4806803;29;20074;-78
2022/08/03 06:05:42;;;;;;;8.85;3.20;;;19.80;99.90;;;;;;4817221;29;20046;-78
2022/08/03 06:08:08;;;;;;;8.40;3.40;;;19.90;99.90;;;;;;4822624;29;20038;-78
2022/08/03 06:10:34;;;;;;;8.18;3.55;;;19.90;99.90;;;;;;4827045;29;20053;-78
2022/08/03 06:12:59;;;;;;;9.55;3.60;;;20.00;99.90;;;;;;4821202;29;20396;-78
2022/08/03 06:15:25;;;;;;;10.63;3.85;;;20.00;99.90;;;;;;4800502;29;20549;-78
2022/08/03 06:17:51;;;;;;;10.75;3.63;;;20.10;99.90;;;;;;4794815;29;20490;-78
2022/08/03 06:20:19;;;;;;;13.13;3.78;;;20.20;99.90;;;;;;4810620;29;20530;-78
2022/08/03 06:22:46;;;;;;;13.90;3.20;;;20.20;99.90;;;;;;4839250;29;20049;-78
2022/08/03 06:25:12;;;;;;;9.63;3.45;;;20.20;99.90;;;;;;4820555;29;20054;-78
2022/08/03 06:27:39;;;;;;;10.88;3.45;;;20.40;99.90;;;;;;4804278;29;20123;-78
2022/08/03 06:30:07;;;;;;;9.07;3.30;;;20.40;99.90;;;;;;4807609;29;20038;-79
2022/08/03 06:32:33;;;;;;;12.10;3.20;;;20.50;99.90;;;;;;4822266;29;20470;-79
2022/08/03 06:34:59;;;;;;;12.40;3.55;;;20.50;99.90;;;;;;4821136;29;20145;-78
2022/08/03 06:37:25;;;;;;;12.77;3.97;;;20.50;99.90;;;;;;4804372;29;20070;-78
2022/08/03 06:39:52;;;;;;;12.30;3.65;;;20.50;99.90;;;;;;4819152;29;20486;-78
2022/08/03 06:42:18;;;;;;;12.35;3.95;;;20.50;99.90;;;;;;4804547;29;20134;-78
2022/08/03 06:44:44;;;;;;;9.13;3.63;;;20.60;99.90;;;;;;4820706;29;20107;-78
2022/08/03 06:47:10;;;;;;;9.50;3.42;;;20.70;99.90;;;;;;4808297;29;20042;-78
2022/08/03 06:49:36;;;;;;;8.38;3.28;;;20.80;99.90;;;;;;4789181;29;20162;-78
2022/08/03 06:52:02;;;;;;;10.52;3.15;;;21.00;99.90;;;;;;4787344;29;20131;-78
2022/08/03 06:54:28;;;;;;;8.07;3.25;;;21.30;99.90;;;;;;4805313;29;20057;-78
2022/08/03 06:56:53;;;;;;;13.55;3.88;;;21.70;99.90;;;;;;4795437;29;20129;-77
2022/08/03 06:59:19;;;;;;;12.25;4.00;;;22.10;99.90;;;;;;4835566;29;20046;-78
2022/08/03 07:01:45;;;;;;;8.57;3.25;;;22.30;99.90;;;;;;4814397;29;20115;-78
2022/08/03 07:04:10;;;;;;;11.32;4.20;;;22.50;99.90;;;;;;4820929;29;20054;-77
2022/08/03 07:06:37;;;;;;;12.38;3.85;;;22.60;99.90;;;;;;4795141;29;20549;-79
2022/08/03 07:09:03;;;;;;;12.23;3.67;;;22.80;99.90;;;;;;4820352;29;20099;-78
2022/08/03 07:11:29;;;;;;;11.70;3.28;;;22.90;99.90;;;;;;4804734;29;20054;-78
2022/08/03 07:13:55;;;;;;;10.15;3.70;;;23.00;99.90;;;;;;4804137;29;20054;-79
2022/08/03 07:16:21;;;;;;;13.82;3.75;;;23.20;99.90;;;;;;4801900;29;20878;-78
2022/08/03 07:18:47;;;;;;;12.43;3.63;;;23.30;99.90;;;;;;4801893;29;20401;-78
2022/08/03 07:21:14;;;;;;;10.18;3.55;;;23.50;99.90;;;;;;4829365;29;20054;-79
2022/08/03 07:23:40;;;;;;;12.70;3.75;;;23.60;99.90;;;;;;4816061;29;20446;-79
2022/08/03 07:26:06;;;;;;;9.85;3.95;;;23.70;99.90;;;;;;4818155;29;20049;-78
2022/08/03 07:28:32;;;;;;;10.00;3.25;;;23.80;99.90;;;;;;4821794;29;20057;-78
2022/08/03 07:30:58;;;;;;;12.40;4.03;;;23.80;99.90;;;;;;4820850;29;20053;-78
2022/08/03 07:33:24;;;;;;;14.20;3.72;;;23.80;99.90;;;;;;4792675;29;20039;-77
2022/08/03 07:35:50;;;;;;;12.07;4.47;;;23.90;99.90;;;;;;4799409;29;20557;-78
2022/08/03 07:38:15;;;;;;;11.45;3.15;;;23.90;99.90;;;;;;4814610;29;20053;-78
2022/08/03 07:40:41;;;;;;;10.48;4.40;;;24.00;99.90;;;;;;4810967;29;20059;-78
2022/08/03 07:43:07;;;;;;;14.63;4.10;;;24.00;99.90;;;;;;4795149;29;20062;-79
2022/08/03 07:45:33;;;;;;;10.23;3.88;;;24.00;99.90;;;;;;4801362;29;20039;-78
2022/08/03 07:47:58;;;;;;;12.07;3.22;;;24.20;99.90;;;;;;4814469;29;20053;-78
2022/08/03 07:50:24;;;;;;;10.02;3.80;;;24.30;99.90;;;;;;4833127;29;20043;-79
2022/08/03 07:52:52;;;;;;;13.73;3.75;;;24.50;99.90;;;;;;4798029;29;20038;-78
2022/08/03 07:55:20;;;;;;;13.93;3.40;;;24.60;99.90;;;;;;4832614;29;20046;-78
2022/08/03 07:57:46;;;;;;;9.85;3.17;;;24.80;99.90;;;;;;4818490;29;20125;-78
2022/08/03 08:00:17;;;;;;;12.50;3.53;;;25.00;99.90;;;;;;4797108;29;20407;-78
2022/08/03 08:02:44;;;;;;;13.43;3.58;;;25.00;99.90;;;;;;4817950;29;20099;-78
2022/08/03 08:05:11;;;;;;;11.63;3.45;;;25.10;99.90;;;;;;4833532;29;20057;-78
2022/08/03 08:07:38;;;;;;;13.30;3.78;;;25.30;99.90;;;;;;4824239;29;20121;-78
2022/08/03 08:10:05;;;;;;;9.68;3.25;;;25.40;99.90;;;;;;4835386;29;20039;-78
2022/08/03 08:12:31;;;;;;;11.85;3.60;;;25.40;99.90;;;;;;4832461;29;20187;-78
2022/08/03 08:14:57;;;;;;;14.57;2.95;;;25.50;99.90;;;;;;4811526;29;20084;-78
2022/08/03 08:17:23;;;;;;;8.70;3.20;;;25.50;99.90;;;;;;4825178;29;20074;-78
2022/08/03 08:19:49;;;;;;;10.77;3.03;;;25.70;99.90;;;;;;4809282;29;20061;-78
2022/08/03 08:22:14;;;;;;;10.43;3.38;;;25.70;99.90;;;;;;4836404;29;20491;-78
2022/08/03 08:24:42;;;;;;;11.63;3.78;;;25.70;99.90;;;;;;4819299;29;20050;-78
2022/08/03 08:27:10;;;;;;;8.50;3.40;;;25.70;99.90;;;;;;4808206;29;20049;-80
2022/08/03 08:29:37;;;;;;;12.07;3.33;;;25.80;99.90;;;;;;4805688;29;20087;-78
2022/08/03 08:32:03;;;;;;;11.90;2.90;;;25.80;99.90;;;;;;4815091;29;20042;-79
2022/08/03 08:34:28;;;;;;;10.10;2.65;;;25.90;99.90;;;;;;4812009;29;20100;-80
2022/08/03 08:36:54;;;;;;;10.20;3.28;;;25.90;99.90;;;;;;4800868;29;20053;-79
2022/08/03 08:39:20;;;;;;;11.23;3.28;;;26.00;99.90;;;;;;4801562;29;20173;-78
2022/08/03 08:41:45;;;;;;;13.23;3.13;;;26.00;99.90;;;;;;4821940;29;20392;-79
2022/08/03 08:44:11;;;;;;;13.50;3.08;;;26.00;99.90;;;;;;4818740;29;20496;-78
2022/08/03 08:46:38;;;;;;;9.38;2.75;;;26.10;99.90;;;;;;4799306;29;20126;-78
2022/08/03 08:49:07;;;;;;;9.77;3.05;;;26.10;99.90;;;;;;4797310;29;20507;-79
2022/08/03 08:51:36;;;;;;;10.73;3.25;;;26.10;99.90;;;;;;4795058;29;20046;-79
2022/08/03 08:54:03;;;;;;;11.25;3.22;;;26.20;99.90;;;;;;4815160;29;20059;-79
2022/08/03 08:56:31;;;;;;;7.38;3.17;;;26.30;99.90;;;;;;4802310;29;20054;-79
2022/08/03 08:58:59;;;;;;;10.38;3.42;;;26.30;99.90;;;;;;4836549;29;20034;-79
2022/08/03 09:01:25;;;;;;;12.10;3.00;;;26.30;99.90;;;;;;4805025;29;20042;-79
2022/08/03 09:03:52;;;;;;;8.38;2.78;;;26.30;99.90;;;;;;4831530;29;20042;-79
2022/08/03 09:06:19;;;;;;;15.95;3.10;;;26.30;99.90;;;;;;4813954;29;20046;-78
2022/08/03 09:08:45;;;;;;;12.32;3.33;;;26.30;99.90;;;;;;4824829;29;20046;-78
2022/08/03 09:11:11;;;;;;;8.60;2.60;;;26.40;99.90;;;;;;4801502;29;20065;-79
2022/08/03 09:13:37;;;;;;;12.38;2.92;;;26.40;99.90;;;;;;4803005;29;20143;-78
2022/08/03 09:16:15;;;;;;;8.38;2.50;;;26.40;99.90;;;;;;4797834;29;20108;-79
2022/08/03 09:18:42;;;;;;;9.68;2.70;;;26.60;99.90;;;;;;4804947;29;20058;-78
2022/08/03 09:21:30;;;;;;;8.02;2.38;;;26.70;99.90;;;;;;4802614;29;20107;-78
2022/08/03 09:23:57;;;;;;;11.27;3.20;;;26.70;99.90;;;;;;4814844;29;20043;-79
2022/08/03 09:26:25;;;;;;;11.68;3.25;;;26.70;99.90;;;;;;4818169;29;20440;-79
2022/08/03 09:29:08;;;;;;;10.57;2.83;;;26.70;99.90;;;;;;4819272;29;20047;-79
2022/08/03 09:31:36;;;;;;;12.73;3.25;;;26.70;99.90;;;;;;4816143;29;20141;-78
2022/08/03 09:34:10;;;;;;;10.85;2.50;;;26.70;99.90;;;;;;4835066;29;20077;-79
2022/08/03 09:36:41;;;;;;;11.88;3.45;;;26.80;99.90;;;;;;4802240;29;20104;-78
2022/08/03 09:39:10;;;;;;;12.40;3.30;;;26.90;99.90;;;;;;4814658;29;20039;-79
2022/08/03 09:41:41;;;;;;;7.78;2.72;;;27.00;99.90;;;;;;4813074;29;20066;-79
2022/08/03 09:44:07;;;;;;;15.07;3.78;;;27.00;99.90;;;;;;4792605;29;20055;-79
2022/08/03 09:46:50;;;;;;;12.85;3.22;;;27.10;99.90;;;;;;4800207;29;20047;-78
2022/08/03 09:49:16;;;;;;;9.15;3.50;;;27.00;99.90;;;;;;4805174;29;20050;-78
2022/08/03 09:51:43;;;;;;;11.35;3.40;;;27.00;99.90;;;;;;4812220;29;20483;-78
2022/08/03 09:54:10;;;;;;;10.68;3.50;;;26.90;99.90;;;;;;4813913;29;20039;-78
2022/08/03 09:56:44;;;;;;;11.30;2.83;;;26.80;99.90;;;;;;4805177;29;20069;-78
2022/08/03 09:59:11;;;;;;;11.88;3.30;;;26.70;99.90;;;;;;4810347;29;20140;-78
2022/08/03 10:01:40;;;;;;;11.48;3.22;;;26.60;99.90;;;;;;4823669;29;20050;-79
2022/08/03 10:04:12;;;;;;;15.45;3.22;;;26.60;99.90;;;;;;4807798;29;20051;-78
2022/08/03 10:06:38;;;;;;;13.52;3.33;;;26.60;99.90;;;;;;4828973;29;20114;-78
2022/08/03 10:09:12;;;;;;;12.55;2.58;;;26.50;99.90;;;;;;4824266;29;20472;-78
2022/08/03 10:11:40;;;;;;;11.38;3.03;;;26.50;99.90;;;;;;4827798;29;20092;-79
2022/08/03 10:14:17;;;;;;;14.52;2.95;;;26.50;99.90;;;;;;4825164;29;20535;-79
2022/08/03 10:16:45;;;;;;;11.57;3.45;;;26.40;99.90;;;;;;4804750;29;20415;-78
2022/08/03 10:19:10;;;;;;;12.50;3.28;;;26.40;99.90;;;;;;4810599;29;20057;-78
2022/08/03 10:21:42;;;;;;;16.05;3.60;;;26.40;99.90;;;;;;4802032;29;20043;-78
2022/08/03 10:24:09;;;;;;;14.30;3.17;;;26.30;99.90;;;;;;4811309;29;20701;-78
2022/08/03 10:26:40;;;;;;;16.17;3.40;;;26.30;99.90;;;;;;4823293;29;20034;-78
2022/08/03 10:29:11;;;;;;;13.77;3.67;;;26.30;99.90;;;;;;4826543;29;20043;-78
2022/08/03 10:31:39;;;;;;;14.80;3.80;;;26.30;99.90;;;;;;4822054;29;20126;-78
2022/08/03 10:34:18;;;;;;;13.73;3.20;;;26.30;99.90;;;;;;4821475;29;20129;-78
2022/08/03 10:36:46;;;;;;;14.38;3.33;;;26.40;99.90;;;;;;4825345;29;20436;-78
2022/08/03 10:39:13;;;;;;;11.05;3.40;;;26.40;99.90;;;;;;4809824;29;20060;-78
2022/08/03 10:41:45;;;;;;;13.40;3.85;;;26.30;99.90;;;;;;4803052;29;20504;-78
2022/08/03 10:44:17;;;;;;;13.13;3.03;;;26.40;99.90;;;;;;4819673;29;20054;-78
2022/08/03 10:46:45;;;;;;;15.05;3.28;;;26.40;99.90;;;;;;4830926;29;20078;-79
2022/08/03 10:49:17;;;;;;;15.18;3.63;;;26.40;99.90;;;;;;4820520;29;20050;-78
2022/08/03 10:51:45;;;;;;;12.27;3.38;;;26.50;99.90;;;;;;4838189;29;20069;-78
2022/08/03 10:57:33;;;;;;;14.15;3.60;;;26.50;99.90;;;;;;4831517;29;20045;-78
2022/08/03 10:57:53;;;;;;;12.70;3.15;;;26.50;99.90;;;;;;4839884;29;20084;-78
2022/08/03 11:00:23;;;;;;;12.55;3.50;;;26.60;99.90;;;;;;4811111;29;20095;-78
2022/08/03 11:03:05;;;;;;;13.65;3.78;;;26.60;99.90;;;;;;4821491;29;20584;-79
2022/08/03 11:05:33;;;;;;;12.10;3.30;;;26.60;99.90;;;;;;4814473;29;20457;-78
2022/08/03 11:08:26;;;;;;;9.65;3.22;;;26.60;99.90;;;;;;4826850;29;20049;-78
2022/08/03 11:11:19;;;;;;;14.48;3.28;;;26.70;99.90;;;;;;4807520;29;20132;-78
2022/08/03 11:14:18;;;;;;;15.05;3.33;;;26.70;99.90;;;;;;4823855;29;20138;-78
2022/08/03 11:16:46;;;;;;;14.00;3.22;;;26.70;99.90;;;;;;4793384;29;20090;-77
2022/08/03 11:19:21;;;;;;;9.93;3.20;;;26.70;99.90;;;;;;4806343;29;20142;-78
2022/08/03 11:21:49;;;;;;;12.70;2.88;;;26.80;99.90;;;;;;4826248;29;20055;-79
2022/08/03 11:24:38;;;;;;;13.35;2.90;;;26.80;99.90;;;;;;4812184;29;20099;-79
2022/08/03 11:27:23;;;;;;;12.90;2.92;;;26.80;99.50;;;;;;4820205;29;20049;-79
2022/08/03 11:29:59;;;;;;;14.80;3.33;;;26.80;99.90;;;;;;4816271;29;20049;-79
2022/08/03 11:32:37;;;;;;;14.02;3.03;;;26.90;99.90;;;;;;4813092;29;20463;-78
2022/08/03 11:35:17;;;;;;;10.27;3.60;;;26.90;99.40;;;;;;4813557;29;20451;-78
2022/08/03 11:38:07;;;;;;;9.93;3.20;;;27.00;99.90;;;;;;4819929;29;20078;-78
2022/08/03 11:40:37;;;;;;;9.65;3.20;;;27.00;99.80;;;;;;4824082;29;20066;-78
2022/08/03 11:43:09;;;;;;;9.45;3.17;;;27.00;99.80;;;;;;4839500;29;20051;-77
2022/08/03 11:45:36;;;;;;;12.20;3.10;;;27.00;99.80;;;;;;4812545;29;20069;-78
2022/08/03 11:48:14;;;;;;;10.38;3.28;;;27.10;99.90;;;;;;4811941;29;20062;-78
2022/08/03 11:50:43;;;;;;;11.55;3.00;;;27.10;99.20;;;;;;4831607;29;20047;-78
2022/08/03 11:53:13;;;;;;;12.63;3.83;;;27.20;99.80;;;;;;4831927;29;20047;-78
2022/08/03 11:55:42;;;;;;;12.68;2.70;;;27.20;99.40;;;;;;4807632;29;20515;-78
2022/08/03 11:58:07;;;;;;;11.63;2.70;;;27.20;99.20;;;;;;4806665;29;20050;-78
2022/08/03 12:00:33;;;;;;;10.98;2.88;;;27.20;99.30;;;;;;4795486;29;20043;-78
2022/08/03 12:03:10;;;;;;;13.98;3.08;;;27.30;98.30;;;;;;4822223;29;20543;-78
2022/08/03 12:05:38;;;;;;;10.63;2.40;;;27.30;96.00;;;;;;4814118;29;20057;-79
2022/08/03 12:08:05;;;;;;;11.68;2.53;;;27.40;96.20;;;;;;4826058;29;20122;-78
2022/08/03 12:10:31;;;;;;;10.98;3.17;;;27.40;96.20;;;;;;4820207;29;20049;-78
2022/08/03 12:12:58;;;;;;;10.65;2.63;;;27.50;96.10;;;;;;4809088;29;20060;-78
2022/08/03 12:15:29;;;;;;;10.82;3.30;;;27.60;96.30;;;;;;4804946;29;20066;-78
2022/08/03 12:17:56;;;;;;;16.25;2.85;;;27.60;96.00;;;;;;4823939;29;20042;-78
2022/08/03 12:20:24;;;;;;;7.05;2.50;;;27.70;96.10;;;;;;4806893;29;20054;-78
2022/08/03 12:22:50;;;;;;;14.00;2.78;;;27.80;95.80;;;;;;4801382;29;20050;-78
2022/08/03 12:25:36;;;;;;;8.57;2.75;;;27.80;95.50;;;;;;4802302;29;20107;-78
2022/08/03 12:28:17;;;;;;;11.73;2.72;;;28.00;95.40;;;;;;4835865;29;20046;-78
2022/08/03 12:30:46;;;;;;;8.50;2.40;;;28.00;96.00;;;;;;4820819;29;20042;-78
2022/08/03 12:33:25;;;;;;;9.48;2.65;;;28.10;95.70;;;;;;4816253;29;20129;-78
2022/08/03 12:36:11;;;;;;;12.93;2.85;;;28.20;95.30;;;;;;4835666;29;20050;-78
2022/08/03 12:38:37;;;;;;;;;;;28.40;94.70;;;;;;4795620;29;20058;-78
2022/08/03 12:41:12;;;;;;;12.20;2.63;;;28.50;95.30;;;;;;4818675;29;20019;-78
2022/08/03 12:43:50;;;;;;;7.53;2.63;;;28.60;95.00;;;;;;4804211;29;20135;-78
2022/08/03 12:46:17;;;;;;;9.50;3.00;;;28.80;94.00;;;;;;4821147;29;20121;-77
2022/08/03 12:49:03;;;;;;;11.43;2.78;;;28.90;94.20;;;;;;4829219;29;20551;-78
2022/08/03 12:51:31;;;;;;;8.50;2.50;;;29.00;93.10;;;;;;4820600;29;20097;-78
2022/08/03 12:53:58;;;;;;;7.90;2.58;;;29.20;93.50;;;;;;4808705;29;20081;-78
2022/08/03 12:56:24;;;;;;;9.63;2.15;;;29.40;92.60;;;;;;4814268;29;20055;-79
2022/08/03 12:58:50;;;;;;;8.20;2.05;;;29.70;92.00;;;;;;4824458;29;20058;-78
2022/08/03 13:01:16;;;;;;;10.90;2.85;;;30.00;92.00;;;;;;4816615;29;20496;-78
2022/08/03 13:03:44;;;;;;;8.82;2.60;;;30.40;92.90;;;;;;4799883;29;20496;-79